sensor_id;sensor_type;location;lat;lon;timestamp;temperature;humidity
6355;DHT22;3210;48.708;9.030;2023-03-23T18:26:11;14.30;1.00
6355;DHT22;3210;48.708;9.030;2023-03-23T18:28:39;14.30;1.00
6355;DHT22;3210;48.708;9.030;2023-03-23T18:31:07;14.30;1.00
6355;DHT22;3210;48.708;9.030;2023-03-23T18:33:35;14.30;1.00
6355;DHT22;3210;48.708;9.030;2023-03-23T18:36:04;14.30;1.00
6355;DHT22;3210;48.708;9.030;2023-03-23T18:38:32;14.20;1.00
6355;DHT22;3210;48.708;9.030;2023-03-23T18:40:59;14.30;1.00
6355;DHT22;3210;48.708;9.030;2023-03-23T18:43:27;14.20;1.00
6355;DHT22;3210;48.708;9.030;2023-03-23T18:45:56;14.20;1.00
6355;DHT22;3210;48.708;9.030;2023-03-23T18:48:23;14.10;1.00
6355;DHT22;3210;48.708;9.030;2023-03-23T18:50:51;14.10;1.00
6355;DHT22;3210;48.708;9.030;2023-03-23T18:53:19;14.00;1.00
6355;DHT22;3210;48.708;9.030;2023-03-23T18:55:47;14.00;1.00
6355;DHT22;3210;48.708;9.030;2023-03-23T18:58:16;14.00;1.00
6355;DHT22;3210;48.708;9.030;2023-03-23T19:00:44;14.00;1.00
6355;DHT22;3210;48.708;9.030;2023-03-23T19:03:12;13.90;1.00
6355;DHT22;3210;48.708;9.030;2023-03-23T19:05:40;14.00;1.00
6355;DHT22;3210;48.708;9.030;2023-03-23T19:08:09;14.00;1.00
6355;DHT22;3210;48.708;9.030;2023-03-23T19:10:37;14.00;1.00
6355;DHT22;3210;48.708;9.030;2023-03-23T19:13:05;14.00;1.00
6355;DHT22;3210;48.708;9.030;2023-03-23T19:15:36;13.90;1.00
6355;DHT22;3210;48.708;9.030;2023-03-23T19:18:06;14.00;1.00
6355;DHT22;3210;48.708;9.030;2023-03-23T19:20:33;14.00;1.00
6355;DHT22;3210;48.708;9.030;2023-03-23T19:23:00;14.00;1.00
6355;DHT22;3210;48.708;9.030;2023-03-23T19:25:36;14.00;1.00
6355;DHT22;3210;48.708;9.030;2023-03-23T19:28:03;14.00;1.00
6355;DHT22;3210;48.708;9.030;2023-03-23T19:30:30;13.90;1.00
6355;DHT22;3210;48.708;9.030;2023-03-23T19:32:56;13.90;1.00
6355;DHT22;3210;48.708;9.030;2023-03-23T19:35:25;13.80;1.00
6355;DHT22;3210;48.708;9.030;2023-03-23T19:37:52;13.90;1.00
6355;DHT22;3210;48.708;9.030;2023-03-23T19:40:18;13.80;1.00
6355;DHT22;3210;48.708;9.030;2023-03-23T19:42:48;13.70;1.00
6355;DHT22;3210;48.708;9.030;2023-03-23T19:45:15;13.60;1.00
6355;DHT22;3210;48.708;9.030;2023-03-23T19:47:42;13.60;1.00
6355;DHT22;3210;48.708;9.030;2023-03-23T19:50:09;13.50;1.00
6355;DHT22;3210;48.708;9.030;2023-03-23T19:52:37;13.50;1.00
6355;DHT22;3210;48.708;9.030;2023-03-23T19:55:04;13.50;1.00
6355;DHT22;3210;48.708;9.030;2023-03-23T19:57:31;13.40;1.00
6355;DHT22;3210;48.708;9.030;2023-03-23T19:59:59;13.40;1.00
6355;DHT22;3210;48.708;9.030;2023-03-23T20:02:26;13.40;1.00
6355;DHT22;3210;48.708;9.030;2023-03-23T20:04:52;13.30;1.00
6355;DHT22;3210;48.708;9.030;2023-03-23T20:07:20;13.20;1.00
6355;DHT22;3210;48.708;9.030;2023-03-23T20:09:48;13.20;1.00
6355;DHT22;3210;48.708;9.030;2023-03-23T20:12:15;13.20;1.00
6355;DHT22;3210;48.708;9.030;2023-03-23T20:14:41;13.10;1.00
6355;DHT22;3210;48.708;9.030;2023-03-23T20:17:09;13.10;1.00
6355;DHT22;3210;48.708;9.030;2023-03-23T20:19:36;13.00;1.00
6355;DHT22;3210;48.708;9.030;2023-03-23T20:22:03;13.00;1.00
6355;DHT22;3210;48.708;9.030;2023-03-23T20:24:30;13.00;1.00
6355;DHT22;3210;48.708;9.030;2023-03-23T20:26:58;12.90;1.00
6355;DHT22;3210;48.708;9.030;2023-03-23T20:29:27;12.90;1.00
6355;DHT22;3210;48.708;9.030;2023-03-23T20:31:56;12.90;1.00
6355;DHT22;3210;48.708;9.030;2023-03-23T20:34:23;12.80;1.00
6355;DHT22;3210;48.708;9.030;2023-03-23T20:36:55;12.80;1.00
6355;DHT22;3210;48.708;9.030;2023-03-23T20:39:24;12.90;1.00
6355;DHT22;3210;48.708;9.030;2023-03-23T20:41:52;12.90;1.00
6355;DHT22;3210;48.708;9.030;2023-03-23T20:44:25;12.80;1.00
6355;DHT22;3210;48.708;9.030;2023-03-23T20:46:56;12.90;1.00
6355;DHT22;3210;48.708;9.030;2023-03-23T20:49:23;12.90;1.00
6355;DHT22;3210;48.708;9.030;2023-03-23T20:51:55;12.90;1.00
6355;DHT22;3210;48.708;9.030;2023-03-23T20:54:22;12.90;1.00
6355;DHT22;3210;48.708;9.030;2023-03-23T20:56:50;13.00;1.00
6355;DHT22;3210;48.708;9.030;2023-03-23T20:59:19;13.00;1.00
6355;DHT22;3210;48.708;9.030;2023-03-23T21:01:47;13.00;1.00
6355;DHT22;3210;48.708;9.030;2023-03-23T21:04:16;13.00;1.00
6355;DHT22;3210;48.708;9.030;2023-03-23T21:06:45;12.90;1.00
6355;DHT22;3210;48.708;9.030;2023-03-23T21:09:26;12.80;1.00
6355;DHT22;3210;48.708;9.030;2023-03-23T21:11:53;12.80;1.00
6355;DHT22;3210;48.708;9.030;2023-03-23T21:14:21;12.80;1.00
6355;DHT22;3210;48.708;9.030;2023-03-23T21:16:50;12.90;1.00
6355;DHT22;3210;48.708;9.030;2023-03-23T21:19:17;12.80;1.00
6355;DHT22;3210;48.708;9.030;2023-03-23T21:21:44;12.70;1.00
6355;DHT22;3210;48.708;9.030;2023-03-23T21:24:11;12.70;1.00
6355;DHT22;3210;48.708;9.030;2023-03-23T21:26:39;12.70;1.00
6355;DHT22;3210;48.708;9.030;2023-03-23T21:29:06;12.60;1.00
6355;DHT22;3210;48.708;9.030;2023-03-23T21:31:37;12.70;1.00
6355;DHT22;3210;48.708;9.030;2023-03-23T21:34:07;12.60;1.00
6355;DHT22;3210;48.708;9.030;2023-03-23T21:36:34;12.70;1.00
6355;DHT22;3210;48.708;9.030;2023-03-23T21:39:02;12.60;1.00
6355;DHT22;3210;48.708;9.030;2023-03-23T21:41:31;12.60;1.00
6355;DHT22;3210;48.708;9.030;2023-03-23T21:43:59;12.50;1.00
6355;DHT22;3210;48.708;9.030;2023-03-23T21:46:26;12.60;1.00
6355;DHT22;3210;48.708;9.030;2023-03-23T21:48:53;12.60;1.00
6355;DHT22;3210;48.708;9.030;2023-03-23T21:51:22;12.60;1.00
6355;DHT22;3210;48.708;9.030;2023-03-23T21:53:50;12.40;1.00
6355;DHT22;3210;48.708;9.030;2023-03-23T21:56:19;12.30;1.00
6355;DHT22;3210;48.708;9.030;2023-03-23T21:58:46;12.30;1.00
6355;DHT22;3210;48.708;9.030;2023-03-23T22:01:12;12.30;1.00
6355;DHT22;3210;48.708;9.030;2023-03-23T22:03:40;12.30;1.00
6355;DHT22;3210;48.708;9.030;2023-03-23T22:06:10;12.30;1.00
6355;DHT22;3210;48.708;9.030;2023-03-23T22:08:44;12.30;1.00
6355;DHT22;3210;48.708;9.030;2023-03-23T22:11:16;12.30;1.00
6355;DHT22;3210;48.708;9.030;2023-03-23T22:13:43;12.30;1.00
6355;DHT22;3210;48.708;9.030;2023-03-23T22:16:12;12.20;1.00
6355;DHT22;3210;48.708;9.030;2023-03-23T22:18:40;12.10;1.00
6355;DHT22;3210;48.708;9.030;2023-03-23T22:21:08;12.00;1.00
6355;DHT22;3210;48.708;9.030;2023-03-23T22:23:40;12.00;1.00
6355;DHT22;3210;48.708;9.030;2023-03-23T22:26:09;11.90;1.00
6355;DHT22;3210;48.708;9.030;2023-03-23T22:28:37;11.90;1.00
6355;DHT22;3210;48.708;9.030;2023-03-23T22:31:07;11.90;1.00
6355;DHT22;3210;48.708;9.030;2023-03-23T22:33:36;11.80;1.00
6355;DHT22;3210;48.708;9.030;2023-03-23T22:36:03;11.90;1.00
6355;DHT22;3210;48.708;9.030;2023-03-23T22:38:31;11.90;1.00
6355;DHT22;3210;48.708;9.030;2023-03-23T22:41:00;11.90;1.00
6355;DHT22;3210;48.708;9.030;2023-03-23T22:43:27;11.80;1.00
6355;DHT22;3210;48.708;9.030;2023-03-23T22:45:54;11.80;1.00
6355;DHT22;3210;48.708;9.030;2023-03-23T22:48:22;11.80;1.00
6355;DHT22;3210;48.708;9.030;2023-03-23T22:50:49;11.80;1.00
6355;DHT22;3210;48.708;9.030;2023-03-23T22:53:18;11.80;1.00
6355;DHT22;3210;48.708;9.030;2023-03-23T22:55:50;11.80;1.00
6355;DHT22;3210;48.708;9.030;2023-03-23T22:58:19;11.80;1.00
6355;DHT22;3210;48.708;9.030;2023-03-23T23:00:48;11.80;1.00
6355;DHT22;3210;48.708;9.030;2023-03-23T23:03:15;11.70;1.00
6355;DHT22;3210;48.708;9.030;2023-03-23T23:05:44;11.70;1.00
6355;DHT22;3210;48.708;9.030;2023-03-23T23:08:12;11.80;1.00
6355;DHT22;3210;48.708;9.030;2023-03-23T23:10:40;11.80;1.00
6355;DHT22;3210;48.708;9.030;2023-03-23T23:13:08;11.70;1.00
6355;DHT22;3210;48.708;9.030;2023-03-23T23:15:39;11.80;1.00
6355;DHT22;3210;48.708;9.030;2023-03-23T23:18:07;11.70;1.00
6355;DHT22;3210;48.708;9.030;2023-03-23T23:20:35;11.70;1.00
6355;DHT22;3210;48.708;9.030;2023-03-23T23:23:02;11.60;1.00
6355;DHT22;3210;48.708;9.030;2023-03-23T23:25:30;11.60;1.00
6355;DHT22;3210;48.708;9.030;2023-03-23T23:28:00;11.70;1.00
6355;DHT22;3210;48.708;9.030;2023-03-23T23:30:27;11.80;1.00
6355;DHT22;3210;48.708;9.030;2023-03-23T23:32:56;11.70;1.00
6355;DHT22;3210;48.708;9.030;2023-03-23T23:35:23;11.80;1.00
6355;DHT22;3210;48.708;9.030;2023-03-23T23:37:51;11.90;1.00
6355;DHT22;3210;48.708;9.030;2023-03-23T23:40:18;12.00;1.00
6355;DHT22;3210;48.708;9.030;2023-03-23T23:42:47;11.90;1.00
6355;DHT22;3210;48.708;9.030;2023-03-23T23:45:15;12.00;1.00
6355;DHT22;3210;48.708;9.030;2023-03-23T23:47:42;12.00;1.00
6355;DHT22;3210;48.708;9.030;2023-03-23T23:50:12;11.90;1.00
6355;DHT22;3210;48.708;9.030;2023-03-23T23:52:40;11.80;1.00
6355;DHT22;3210;48.708;9.030;2023-03-23T23:55:11;11.70;40.40
6355;DHT22;3210;48.708;9.030;2023-03-23T23:57:38;11.50;99.90
